createdAt,value
2023-01-19T00:00:53.350Z,99068.41
2023-01-19T00:03:19.962Z,99070.86
2023-01-19T00:05:46.620Z,99076.19
2023-01-19T00:08:17.616Z,99076.39
2023-01-19T00:10:51.347Z,99087.38
2023-01-19T00:13:18.012Z,99090.53
2023-01-19T00:15:45.567Z,99094.07
2023-01-19T00:18:12.247Z,99093.94
2023-01-19T00:20:40.106Z,99093.36
2023-01-19T00:23:08.261Z,99087.30
2023-01-19T00:25:36.236Z,99085.60
2023-01-19T00:28:02.983Z,99087.41
2023-01-19T00:30:29.916Z,99087.52
2023-01-19T00:32:57.042Z,99085.13
2023-01-19T00:35:23.768Z,99079.66
2023-01-19T00:37:50.597Z,99076.15
2023-01-19T00:40:17.905Z,99075.31
2023-01-19T00:42:44.615Z,99069.48
2023-01-19T00:45:13.289Z,99066.69
2023-01-19T00:47:40.340Z,99065.37
2023-01-19T00:50:08.831Z,99062.83
2023-01-19T00:52:35.510Z,99053.94
2023-01-19T00:55:02.206Z,99057.02
2023-01-19T00:57:29.665Z,99054.36
2023-01-19T00:59:56.597Z,99053.88
2023-01-19T01:02:23.836Z,99054.71
2023-01-19T01:04:54.886Z,99052.71
2023-01-19T01:07:22.633Z,99052.84
2023-01-19T01:09:49.319Z,99055.06
2023-01-19T01:12:16.438Z,99055.75
2023-01-19T01:14:43.134Z,99059.20
2023-01-19T01:17:11.511Z,99052.73
2023-01-19T01:19:38.643Z,99053.19
2023-01-19T01:22:06.044Z,99056.55
2023-01-19T01:24:32.737Z,99057.44
2023-01-19T01:26:59.433Z,99062.48
2023-01-19T01:29:26.475Z,99061.27
2023-01-19T01:31:53.196Z,99063.90
2023-01-19T01:34:19.926Z,99060.15
2023-01-19T01:36:46.631Z,99058.60
2023-01-19T01:39:13.254Z,99063.38
2023-01-19T01:41:39.823Z,99066.13
2023-01-19T01:44:50.020Z,99075.23
2023-01-19T01:47:28.757Z,99077.21
2023-01-19T01:50:11.901Z,99075.98
2023-01-19T01:53:07.364Z,99076.02
2023-01-19T01:55:45.557Z,99074.77
2023-01-19T01:58:14.285Z,99073.12
2023-01-19T02:01:00.805Z,99070.00
2023-01-19T02:03:28.692Z,99068.55
2023-01-19T02:05:59.481Z,99066.39
2023-01-19T02:08:56.553Z,99064.30
2023-01-19T02:11:42.199Z,99057.41
2023-01-19T02:14:08.862Z,99051.29
2023-01-19T02:16:37.593Z,99054.17
2023-01-19T02:19:07.317Z,99056.12
2023-01-19T02:21:43.152Z,99060.10
2023-01-19T02:24:11.018Z,99061.27
2023-01-19T02:26:45.456Z,99062.84
2023-01-19T02:29:15.756Z,99062.90
2023-01-19T02:31:42.781Z,99060.20
2023-01-19T02:34:12.689Z,99064.88
2023-01-19T02:36:56.611Z,99068.14
2023-01-19T02:39:37.018Z,99076.86
2023-01-19T02:42:08.489Z,99084.79
2023-01-19T02:44:37.869Z,99076.23
2023-01-19T02:47:05.019Z,99069.34
2023-01-19T02:49:32.076Z,99060.77
2023-01-19T02:52:01.204Z,99056.73
2023-01-19T02:54:49.527Z,99062.15
2023-01-19T02:57:58.004Z,99070.61
2023-01-19T03:00:56.651Z,99072.50
2023-01-19T03:03:33.397Z,99072.44
2023-01-19T03:06:26.151Z,99074.61
2023-01-19T03:09:11.798Z,99078.72
2023-01-19T03:11:42.032Z,99089.90
2023-01-19T03:14:18.492Z,99093.05
2023-01-19T03:16:55.638Z,99098.36
2023-01-19T03:19:36.862Z,99096.08
2023-01-19T03:22:21.623Z,99095.79
2023-01-19T03:24:49.862Z,99090.48
2023-01-19T03:27:23.272Z,99091.84
2023-01-19T03:29:54.417Z,99085.31
2023-01-19T03:32:25.295Z,99087.41
2023-01-19T03:34:55.135Z,99092.20
2023-01-19T03:37:24.168Z,99094.52
2023-01-19T03:39:50.778Z,99092.79
2023-01-19T03:42:18.290Z,99098.86
2023-01-19T03:44:50.672Z,99102.19
2023-01-19T03:47:19.450Z,99108.41
2023-01-19T03:49:48.540Z,99114.16
2023-01-19T03:52:15.267Z,99115.09
2023-01-19T03:54:42.052Z,99118.60
2023-01-19T03:57:08.699Z,99121.98
2023-01-19T03:59:35.406Z,99120.23
2023-01-19T04:02:02.444Z,99113.58
2023-01-19T04:04:29.083Z,99110.81
2023-01-19T04:06:55.659Z,99102.26
2023-01-19T04:09:22.304Z,99097.48
2023-01-19T04:11:48.922Z,99089.02
2023-01-19T04:14:15.586Z,99078.03
2023-01-19T04:16:42.224Z,99072.06
2023-01-19T04:19:08.875Z,99081.11
2023-01-19T04:21:36.091Z,99086.31
2023-01-19T04:24:02.758Z,99090.75
2023-01-19T04:26:29.592Z,99099.11
2023-01-19T04:28:56.352Z,99108.28
2023-01-19T04:31:23.456Z,99107.08
2023-01-19T04:33:50.296Z,99102.16
2023-01-19T04:36:17.402Z,99094.30
2023-01-19T04:38:44.738Z,99090.17
2023-01-19T04:41:11.311Z,99093.67
2023-01-19T04:43:38.381Z,99098.27
2023-01-19T04:46:05.258Z,99100.38
2023-01-19T04:48:32.192Z,99106.85
2023-01-19T04:50:58.808Z,99106.28
2023-01-19T04:53:25.606Z,99102.52
2023-01-19T04:55:55.825Z,99095.52
2023-01-19T04:58:22.879Z,99096.42
2023-01-19T05:00:51.167Z,99099.59
2023-01-19T05:03:19.477Z,99101.58
2023-01-19T05:05:46.650Z,99099.04
2023-01-19T05:08:13.434Z,99102.56
2023-01-19T05:10:40.040Z,99102.91
2023-01-19T05:13:06.632Z,99102.92
2023-01-19T05:15:33.265Z,99104.96
2023-01-19T05:18:00.023Z,99101.96
2023-01-19T05:20:26.738Z,99100.16
2023-01-19T05:22:53.672Z,99101.88
2023-01-19T05:25:20.912Z,99104.89
2023-01-19T05:27:47.816Z,99108.74
2023-01-19T05:30:14.969Z,99120.17
2023-01-19T05:32:41.581Z,99127.02
2023-01-19T05:35:08.989Z,99123.23
2023-01-19T05:37:35.734Z,99122.96
2023-01-19T05:40:02.409Z,99124.75
2023-01-19T05:42:30.376Z,99134.45
2023-01-19T05:44:59.572Z,99136.88
2023-01-19T05:47:26.624Z,99134.61
2023-01-19T05:49:53.447Z,99137.61
2023-01-19T05:52:20.151Z,99149.39
2023-01-19T05:54:46.798Z,99152.45
2023-01-19T05:57:14.550Z,99155.59
2023-01-19T05:59:41.519Z,99157.66
2023-01-19T06:02:08.868Z,99159.63
2023-01-19T06:04:35.538Z,99159.44
2023-01-19T06:07:02.324Z,99161.66
2023-01-19T06:09:29.401Z,99163.04
2023-01-19T06:11:57.907Z,99166.59
2023-01-19T06:14:25.185Z,99168.46
2023-01-19T06:16:52.469Z,99174.09
2023-01-19T06:19:19.116Z,99178.41
2023-01-19T06:21:49.884Z,99182.91
2023-01-19T06:24:16.569Z,99185.48
2023-01-19T06:26:43.995Z,99190.23
2023-01-19T06:29:12.331Z,99193.19
2023-01-19T06:31:39.176Z,99194.58
2023-01-19T06:34:05.865Z,99198.20
2023-01-19T06:36:32.553Z,99198.45
2023-01-19T06:38:59.316Z,99203.32
2023-01-19T06:41:25.940Z,99211.55
2023-01-19T06:43:52.537Z,99213.80
2023-01-19T06:46:19.138Z,99218.31
2023-01-19T06:48:45.732Z,99220.40
2023-01-19T06:51:12.300Z,99225.13
2023-01-19T06:53:39.222Z,99230.20
2023-01-19T06:56:07.175Z,99237.66
2023-01-19T06:58:34.945Z,99241.60
2023-01-19T07:01:04.189Z,99242.89
2023-01-19T07:03:31.576Z,99244.69
2023-01-19T07:06:02.483Z,99244.81
2023-01-19T07:08:30.372Z,99252.40
2023-01-19T07:11:25.888Z,99256.10
2023-01-19T07:13:51.727Z,99270.70
2023-01-19T07:16:19.064Z,99270.70
2023-01-19T07:18:49.995Z,99277.55
2023-01-19T07:21:16.910Z,99281.52
2023-01-19T07:23:43.708Z,99285.33
2023-01-19T07:26:10.870Z,99291.23
2023-01-19T07:28:37.626Z,99295.60
2023-01-19T07:31:05.257Z,99298.30
2023-01-19T07:33:32.021Z,99302.23
2023-01-19T07:35:58.754Z,99302.16
2023-01-19T07:38:25.632Z,99305.39
2023-01-19T07:40:52.301Z,99304.10
2023-01-19T07:43:19.602Z,99310.71
2023-01-19T07:45:46.285Z,99310.98
2023-01-19T07:48:13.011Z,99314.00
2023-01-19T07:50:39.611Z,99317.25
2023-01-19T07:53:07.870Z,99322.55
2023-01-19T07:55:35.258Z,99327.04
2023-01-19T07:58:04.052Z,99333.08
2023-01-19T08:00:30.793Z,99338.48
2023-01-19T08:03:01.173Z,99341.23
2023-01-19T08:05:31.737Z,99349.77
2023-01-19T08:07:58.818Z,99355.65
2023-01-19T08:10:27.231Z,99353.96
2023-01-19T08:12:55.396Z,99359.73
2023-01-19T08:15:24.134Z,99365.27
2023-01-19T08:17:59.178Z,99368.63
2023-01-19T08:20:27.253Z,99377.13
2023-01-19T08:23:01.409Z,99384.41
2023-01-19T08:25:38.951Z,99391.23
2023-01-19T08:28:06.943Z,99399.16
2023-01-19T08:30:33.783Z,99402.33
2023-01-19T08:33:04.502Z,99410.13
2023-01-19T08:35:32.660Z,99417.74
2023-01-19T08:38:01.614Z,99427.57
2023-01-19T08:40:30.195Z,99433.24
2023-01-19T08:43:05.607Z,99436.34
2023-01-19T08:45:32.645Z,99444.23
2023-01-19T08:47:59.768Z,99451.07
2023-01-19T08:50:28.175Z,99451.23
2023-01-19T08:53:00.322Z,99454.14
2023-01-19T08:55:29.069Z,99459.20
2023-01-19T08:57:58.196Z,99460.19
2023-01-19T09:00:27.121Z,99461.29
2023-01-19T09:02:54.977Z,99466.29
2023-01-19T09:05:21.838Z,99470.05
2023-01-19T09:07:48.635Z,99474.15
2023-01-19T09:10:16.187Z,99480.45
2023-01-19T09:12:44.886Z,99482.41
2023-01-19T09:15:14.211Z,99482.85
2023-01-19T09:17:42.388Z,99485.91
2023-01-19T09:20:09.730Z,99487.95
2023-01-19T09:22:36.448Z,99488.77
2023-01-19T09:25:03.121Z,99503.91
2023-01-19T09:27:30.765Z,99508.45
2023-01-19T09:29:57.453Z,99515.42
2023-01-19T09:32:24.323Z,99525.89
2023-01-19T09:34:51.280Z,99529.23
2023-01-19T09:37:18.072Z,99532.84
2023-01-19T09:39:44.877Z,99529.80
2023-01-19T09:42:27.899Z,99534.77
2023-01-19T09:44:54.622Z,99546.04
2023-01-19T09:47:25.320Z,99551.00
2023-01-19T09:50:26.198Z,99558.77
2023-01-19T09:52:58.198Z,99568.33
2023-01-19T09:55:27.400Z,99570.33
2023-01-19T09:57:54.959Z,99575.83
2023-01-19T10:00:24.361Z,99583.90
2023-01-19T10:03:16.236Z,99580.13
2023-01-19T10:05:53.742Z,99582.13
2023-01-19T10:08:25.996Z,99583.79
2023-01-19T10:10:58.144Z,99586.02
2023-01-19T10:13:34.303Z,99585.06
2023-01-19T10:16:22.300Z,99591.27
2023-01-19T10:18:51.948Z,99595.72
2023-01-19T10:21:26.429Z,99602.69
2023-01-19T10:23:58.585Z,99604.81
2023-01-19T10:26:33.968Z,99601.59
2023-01-19T10:29:29.204Z,99599.15
2023-01-19T10:32:22.461Z,99602.64
2023-01-19T10:34:50.702Z,99600.92
2023-01-19T10:37:29.751Z,99594.77
2023-01-19T10:40:02.352Z,99594.89
2023-01-19T10:42:30.902Z,99597.16
2023-01-19T10:44:57.893Z,99593.10
2023-01-19T10:47:34.587Z,99589.65
2023-01-19T10:50:23.496Z,99586.50
2023-01-19T10:52:53.585Z,99580.91
2023-01-19T10:55:29.329Z,99578.73
2023-01-19T10:57:57.476Z,99581.92
2023-01-19T11:00:40.988Z,99581.65
2023-01-19T11:03:24.058Z,99576.06
2023-01-19T11:05:51.570Z,99571.38
2023-01-19T11:08:30.462Z,99561.31
2023-01-19T11:11:05.186Z,99547.23
2023-01-19T11:13:32.490Z,99537.36
2023-01-19T11:16:06.748Z,99521.21
2023-01-19T11:18:39.273Z,99522.36
2023-01-19T11:21:16.381Z,99513.56
2023-01-19T11:23:52.760Z,99517.41
2023-01-19T11:26:29.178Z,99515.16
2023-01-19T11:28:58.030Z,99516.04
2023-01-19T11:31:27.822Z,99512.73
2023-01-19T11:33:57.833Z,99509.13
2023-01-19T11:36:30.921Z,99505.88
2023-01-19T11:39:19.202Z,99510.02
2023-01-19T11:41:51.210Z,99513.42
2023-01-19T11:44:29.306Z,99520.30
2023-01-19T11:47:01.033Z,99513.10
2023-01-19T11:49:44.556Z,99507.61
2023-01-19T11:52:31.186Z,99500.27
2023-01-19T11:55:08.151Z,99496.80
2023-01-19T11:57:34.847Z,99498.17
2023-01-19T12:00:14.919Z,99496.52
2023-01-19T12:02:48.832Z,99496.95
2023-01-19T12:05:20.367Z,99490.52
2023-01-19T12:07:49.264Z,99488.54
2023-01-19T12:10:30.402Z,99491.88
2023-01-19T12:12:58.548Z,99490.59
2023-01-19T12:15:35.779Z,99492.06
2023-01-19T12:18:05.322Z,99497.94
2023-01-19T12:20:37.161Z,99498.98
2023-01-19T12:23:22.574Z,99498.86
2023-01-19T12:26:18.790Z,99500.09
2023-01-19T12:28:51.147Z,99496.11
2023-01-19T12:31:20.808Z,99492.99
2023-01-19T12:33:47.525Z,99491.42
2023-01-19T12:36:16.944Z,99491.56
2023-01-19T12:38:52.278Z,99492.96
2023-01-19T12:41:26.487Z,99489.35
2023-01-19T12:44:11.414Z,99484.02
2023-01-19T12:46:39.207Z,99476.52
2023-01-19T12:49:14.899Z,99478.66
2023-01-19T12:51:42.057Z,99485.89
2023-01-19T12:54:21.329Z,99480.16
2023-01-19T12:56:48.159Z,99481.64
2023-01-19T12:59:26.620Z,99485.96
2023-01-19T13:02:18.476Z,99486.88
2023-01-19T13:05:32.388Z,99485.31
2023-01-19T13:08:02.720Z,99491.06
2023-01-19T13:11:10.896Z,99497.99
2023-01-19T13:13:49.614Z,99501.13
2023-01-19T13:16:19.291Z,99502.20
2023-01-19T13:18:50.721Z,99503.51
2023-01-19T13:21:34.699Z,99504.02
2023-01-19T13:24:05.637Z,99500.28
2023-01-19T13:26:39.355Z,99503.23
2023-01-19T13:29:11.197Z,99507.11
2023-01-19T13:31:40.403Z,99512.09
2023-01-19T13:34:16.935Z,99517.16
2023-01-19T13:36:46.715Z,99519.85
2023-01-19T13:39:38.169Z,99527.90
2023-01-19T13:42:09.310Z,99535.25
2023-01-19T13:44:47.163Z,99542.98
2023-01-19T13:47:21.618Z,99544.84
2023-01-19T13:49:54.840Z,99550.74
2023-01-19T13:52:27.277Z,99549.67
2023-01-19T13:55:03.277Z,99546.61
2023-01-19T13:57:42.412Z,99545.23
2023-01-19T14:00:12.625Z,99549.68
2023-01-19T14:02:59.486Z,99545.02
2023-01-19T14:05:37.779Z,99547.67
2023-01-19T14:08:13.588Z,99546.97
2023-01-19T14:11:03.176Z,99546.61
2023-01-19T14:13:34.696Z,99550.01
2023-01-19T14:16:06.318Z,99558.08
2023-01-19T14:18:35.354Z,99556.13
2023-01-19T14:21:22.212Z,99559.48
2023-01-19T14:23:50.273Z,99564.80
2023-01-19T14:27:02.131Z,99572.24
2023-01-19T14:29:29.624Z,99570.48
2023-01-19T14:32:13.920Z,99573.27
2023-01-19T14:34:42.053Z,99574.66
2023-01-19T14:37:26.427Z,99571.39
2023-01-19T14:39:55.916Z,99573.13
2023-01-19T14:42:31.795Z,99576.61
2023-01-19T14:45:02.097Z,99580.98
2023-01-19T14:47:37.073Z,99583.14
2023-01-19T14:50:19.061Z,99587.73
2023-01-19T14:52:52.618Z,99593.16
2023-01-19T14:55:34.062Z,99589.25
2023-01-19T14:58:01.161Z,99585.52
2023-01-19T15:00:28.536Z,99587.83
2023-01-19T15:02:55.384Z,99591.48
2023-01-19T15:05:23.264Z,99594.39
2023-01-19T15:07:50.077Z,99598.80
2023-01-19T15:10:22.670Z,99598.77
2023-01-19T15:12:51.458Z,99598.50
2023-01-19T15:15:27.462Z,99599.99
2023-01-19T15:17:56.145Z,99596.28
2023-01-19T15:20:23.154Z,99597.23
2023-01-19T15:22:50.215Z,99592.09
2023-01-19T15:25:19.338Z,99596.89
2023-01-19T15:27:47.136Z,99597.03
2023-01-19T15:30:27.859Z,99599.20
2023-01-19T15:32:54.536Z,99597.94
2023-01-19T15:35:23.222Z,99595.30
2023-01-19T15:37:50.873Z,99599.29
2023-01-19T15:40:19.190Z,99604.38
2023-01-19T15:42:46.215Z,99611.21
2023-01-19T15:45:23.256Z,99613.23
2023-01-19T15:47:49.885Z,99614.54
2023-01-19T15:50:16.994Z,99619.35
2023-01-19T15:52:43.795Z,99619.48
2023-01-19T15:55:12.046Z,99621.27
2023-01-19T15:57:38.699Z,99624.34
2023-01-19T16:00:06.524Z,99623.85
2023-01-19T16:02:37.592Z,99624.92
2023-01-19T16:05:05.115Z,99630.13
2023-01-19T16:07:33.784Z,99636.15
2023-01-19T16:10:01.184Z,99642.91
2023-01-19T16:12:30.840Z,99643.92
2023-01-19T16:14:57.497Z,99642.94
2023-01-19T16:17:24.123Z,99643.86
2023-01-19T16:19:50.745Z,99646.69
2023-01-19T16:22:17.338Z,99641.16
2023-01-19T16:24:44.012Z,99641.60
2023-01-19T16:27:10.649Z,99642.85
2023-01-19T16:29:37.273Z,99648.73
2023-01-19T16:32:04.001Z,99652.58
2023-01-19T16:34:31.274Z,99657.88
2023-01-19T16:36:57.935Z,99656.41
2023-01-19T16:39:24.538Z,99663.72
2023-01-19T16:41:51.171Z,99665.70
2023-01-19T16:44:17.951Z,99674.16
2023-01-19T16:46:46.243Z,99678.34
2023-01-19T16:49:28.084Z,99680.29
2023-01-19T16:51:54.971Z,99687.20
2023-01-19T16:54:25.992Z,99688.39
2023-01-19T16:56:54.492Z,99694.84
2023-01-19T16:59:22.392Z,99699.91
2023-01-19T17:01:53.161Z,99691.04
2023-01-19T17:04:21.614Z,99698.86
2023-01-19T17:06:48.292Z,99707.89
2023-01-19T17:09:15.035Z,99708.56
2023-01-19T17:11:42.628Z,99710.67
2023-01-19T17:14:23.155Z,99716.38
2023-01-19T17:16:49.787Z,99716.86
2023-01-19T17:19:18.717Z,99724.02
2023-01-19T17:21:46.405Z,99724.51
2023-01-19T17:24:13.035Z,99724.45
2023-01-19T17:26:39.712Z,99726.28
2023-01-19T17:29:08.483Z,99731.90
2023-01-19T17:31:36.303Z,99734.79
2023-01-19T17:34:03.467Z,99726.47
2023-01-19T17:36:31.609Z,99733.90
2023-01-19T17:39:00.859Z,99728.76
2023-01-19T17:41:30.290Z,99726.52
2023-01-19T17:43:57.683Z,99727.04
2023-01-19T17:46:26.671Z,99723.31
2023-01-19T17:49:01.966Z,99731.33
2023-01-19T17:51:30.056Z,99731.69
2023-01-19T17:53:57.678Z,99726.95
2023-01-19T17:56:29.503Z,99732.42
2023-01-19T17:58:58.092Z,99735.41
2023-01-19T18:01:33.731Z,99739.91
2023-01-19T18:04:02.593Z,99733.38
2023-01-19T18:06:29.372Z,99738.16
2023-01-19T18:08:57.793Z,99743.23
2023-01-19T18:11:24.573Z,99741.14
2023-01-19T18:13:51.887Z,99746.46
2023-01-19T18:16:22.145Z,99747.42
2023-01-19T18:18:49.934Z,99749.70
2023-01-19T18:21:17.732Z,99755.80
2023-01-19T18:23:45.233Z,99757.27
2023-01-19T18:26:19.036Z,99752.33
2023-01-19T18:28:46.547Z,99753.46
2023-01-19T18:31:16.184Z,99751.67
2023-01-19T18:33:43.025Z,99751.92
2023-01-19T18:36:10.846Z,99749.23
2023-01-19T18:38:38.684Z,99742.02
2023-01-19T18:41:08.776Z,99739.77
2023-01-19T18:43:35.773Z,99740.85
2023-01-19T18:46:02.566Z,99738.21
2023-01-19T18:48:31.216Z,99739.96
2023-01-19T18:50:57.997Z,99739.40
2023-01-19T18:53:24.598Z,99742.98
2023-01-19T18:55:53.233Z,99742.87
2023-01-19T18:58:20.309Z,99741.13
2023-01-19T19:00:47.734Z,99741.21
2023-01-19T19:03:14.537Z,99738.61
2023-01-19T19:05:41.275Z,99732.48
2023-01-19T19:08:08.626Z,99730.30
2023-01-19T19:10:35.612Z,99734.44
2023-01-19T19:13:02.594Z,99740.01
2023-01-19T19:15:29.443Z,99738.58
2023-01-19T19:17:56.042Z,99735.80
2023-01-19T19:20:23.447Z,99734.95
2023-01-19T19:22:51.777Z,99736.20
2023-01-19T19:25:18.448Z,99736.08
2023-01-19T19:27:47.838Z,99728.52
2023-01-19T19:30:15.074Z,99724.78
2023-01-19T19:32:42.221Z,99722.81
2023-01-19T19:35:09.331Z,99721.34
2023-01-19T19:37:35.981Z,99721.92
2023-01-19T19:40:02.656Z,99720.28
2023-01-19T19:42:30.239Z,99726.77
2023-01-19T19:44:56.896Z,99726.23
2023-01-19T19:47:24.510Z,99726.70
2023-01-19T19:49:51.151Z,99729.08
2023-01-19T19:52:17.799Z,99735.09
2023-01-19T19:54:45.292Z,99731.36
2023-01-19T19:57:11.891Z,99728.73
2023-01-19T19:59:38.551Z,99728.52
2023-01-19T20:02:05.427Z,99736.70
2023-01-19T20:04:32.235Z,99736.48
2023-01-19T20:07:00.131Z,99735.77
2023-01-19T20:09:26.819Z,99731.73
2023-01-19T20:11:53.469Z,99738.55
2023-01-19T20:14:21.250Z,99743.33
2023-01-19T20:16:48.369Z,99742.90
2023-01-19T20:19:15.123Z,99743.53
2023-01-19T20:21:42.999Z,99747.37
2023-01-19T20:24:16.236Z,99752.41
2023-01-19T20:26:48.347Z,99752.42
2023-01-19T20:29:15.095Z,99752.81
2023-01-19T20:31:54.941Z,99751.39
2023-01-19T20:34:25.260Z,99756.06
2023-01-19T20:36:53.843Z,99760.56
2023-01-19T20:39:22.561Z,99760.88
2023-01-19T20:41:51.319Z,99756.64
2023-01-19T20:44:20.876Z,99752.73
2023-01-19T20:46:48.229Z,99754.55
2023-01-19T20:49:14.967Z,99756.86
2023-01-19T20:51:45.262Z,99765.98
2023-01-19T20:54:14.232Z,99774.20
2023-01-19T20:56:41.630Z,99778.95
2023-01-19T20:59:09.937Z,99782.21
2023-01-19T21:01:37.425Z,99781.22
2023-01-19T21:04:04.322Z,99787.46
2023-01-19T21:06:31.084Z,99786.48
2023-01-19T21:08:57.945Z,99795.48
2023-01-19T21:11:25.526Z,99795.70
2023-01-19T21:13:56.144Z,99798.05
2023-01-19T21:16:29.770Z,99807.20
2023-01-19T21:18:56.479Z,99804.34
2023-01-19T21:21:30.740Z,99802.20
2023-01-19T21:23:59.786Z,99799.56
2023-01-19T21:26:26.876Z,99801.50
2023-01-19T21:28:53.799Z,99803.16
2023-01-19T21:31:23.116Z,99808.02
2023-01-19T21:33:53.561Z,99805.42
2023-01-19T21:36:21.224Z,99800.19
2023-01-19T21:38:48.407Z,99803.77
2023-01-19T21:41:16.368Z,99805.65
2023-01-19T21:43:43.244Z,99803.98
2023-01-19T21:46:17.201Z,99805.11
2023-01-19T21:48:44.054Z,99808.40
2023-01-19T21:51:10.659Z,99807.16
2023-01-19T21:53:37.532Z,99808.47
2023-01-19T21:56:11.100Z,99812.24
2023-01-19T21:58:38.252Z,99815.43
2023-01-19T22:01:10.851Z,99820.59
2023-01-19T22:03:37.669Z,99823.27
2023-01-19T22:06:10.242Z,99824.93
2023-01-19T22:08:37.315Z,99819.70
2023-01-19T22:11:08.972Z,99824.39
2023-01-19T22:13:38.492Z,99826.17
2023-01-19T22:16:11.206Z,99828.39
2023-01-19T22:18:40.146Z,99828.52
2023-01-19T22:21:12.331Z,99830.83
2023-01-19T22:23:39.801Z,99834.48
2023-01-19T22:26:07.552Z,99833.09
2023-01-19T22:28:34.727Z,99840.80
2023-01-19T22:31:10.784Z,99843.15
2023-01-19T22:33:37.655Z,99843.63
2023-01-19T22:36:13.543Z,99841.27
2023-01-19T22:38:40.836Z,99843.39
2023-01-19T22:41:13.597Z,99845.38
2023-01-19T22:43:40.297Z,99840.71
2023-01-19T22:46:08.717Z,99834.78
2023-01-19T22:48:35.660Z,99837.67
2023-01-19T22:51:02.703Z,99834.70
2023-01-19T22:53:31.584Z,99836.14
2023-01-19T22:55:58.167Z,99834.70
2023-01-19T22:58:24.809Z,99839.02
2023-01-19T23:00:51.491Z,99847.30
2023-01-19T23:03:18.280Z,99846.48
2023-01-19T23:05:44.934Z,99852.05
2023-01-19T23:08:11.591Z,99854.85
2023-01-19T23:10:40.177Z,99850.06
2023-01-19T23:13:06.928Z,99852.41
2023-01-19T23:15:34.933Z,99854.23
2023-01-19T23:18:01.856Z,99854.69
2023-01-19T23:20:28.544Z,99857.67
2023-01-19T23:22:55.212Z,99857.50
2023-01-19T23:25:21.851Z,99863.27
2023-01-19T23:27:48.564Z,99866.02
2023-01-19T23:30:15.506Z,99870.70
2023-01-19T23:32:46.993Z,99866.95
2023-01-19T23:35:14.729Z,99871.34
2023-01-19T23:37:41.682Z,99875.20
2023-01-19T23:40:10.479Z,99875.38
2023-01-19T23:42:37.142Z,99868.50
2023-01-19T23:45:04.182Z,99867.71
2023-01-19T23:47:30.985Z,99868.16
2023-01-19T23:49:57.548Z,99866.21
2023-01-19T23:52:24.255Z,99871.39
2023-01-19T23:54:51.210Z,99871.50
2023-01-19T23:57:17.856Z,99874.27
2023-01-19T23:59:44.608Z,99874.52
